sensor_id;sensor_type;location;lat;lon;timestamp;pressure;altitude;pressure_sealevel;temperature;humidity
6343;BME280;3204;42.698;23.298;2022-07-04T00:02:25;95203.47;;;22.82;60.96
6343;BME280;3204;42.698;23.298;2022-07-04T00:04:50;95202.69;;;22.81;60.57
6343;BME280;3204;42.698;23.298;2022-07-04T00:07:16;95202.28;;;22.79;60.22
6343;BME280;3204;42.698;23.298;2022-07-04T00:09:41;95202.66;;;22.78;60.46
6343;BME280;3204;42.698;23.298;2022-07-04T00:12:07;95197.53;;;22.83;60.54
6343;BME280;3204;42.698;23.298;2022-07-04T00:14:33;95201.09;;;22.80;59.56
6343;BME280;3204;42.698;23.298;2022-07-04T00:16:59;95205.44;;;22.81;59.31
6343;BME280;3204;42.698;23.298;2022-07-04T00:19:24;95207.31;;;22.70;59.46
6343;BME280;3204;42.698;23.298;2022-07-04T00:21:50;95206.88;;;22.68;59.83
6343;BME280;3204;42.698;23.298;2022-07-04T00:24:16;95203.72;;;22.66;60.09
6343;BME280;3204;42.698;23.298;2022-07-04T00:26:42;95205.66;;;22.66;59.76
6343;BME280;3204;42.698;23.298;2022-07-04T00:29:07;95195.81;;;22.68;59.84
6343;BME280;3204;42.698;23.298;2022-07-04T00:31:33;95193.06;;;22.68;59.94
6343;BME280;3204;42.698;23.298;2022-07-04T00:33:59;95193.38;;;22.60;60.07
6343;BME280;3204;42.698;23.298;2022-07-04T00:36:25;95194.84;;;22.50;59.90
6343;BME280;3204;42.698;23.298;2022-07-04T00:38:50;95190.44;;;22.46;60.20
6343;BME280;3204;42.698;23.298;2022-07-04T00:41:16;95178.56;;;22.45;60.01
6343;BME280;3204;42.698;23.298;2022-07-04T00:43:41;95180.59;;;22.48;59.92
6343;BME280;3204;42.698;23.298;2022-07-04T00:46:07;95186.13;;;22.48;59.98
6343;BME280;3204;42.698;23.298;2022-07-04T00:48:32;95180.91;;;22.43;59.85
6343;BME280;3204;42.698;23.298;2022-07-04T00:50:58;95181.03;;;22.50;59.68
6343;BME280;3204;42.698;23.298;2022-07-04T00:53:24;95185.31;;;22.48;59.48
6343;BME280;3204;42.698;23.298;2022-07-04T00:55:53;95177.31;;;22.43;59.44
6343;BME280;3204;42.698;23.298;2022-07-04T00:58:22;95178.50;;;22.42;59.39
6343;BME280;3204;42.698;23.298;2022-07-04T01:00:49;95183.19;;;22.38;59.40
6343;BME280;3204;42.698;23.298;2022-07-04T01:03:15;95182.78;;;22.36;59.24
6343;BME280;3204;42.698;23.298;2022-07-04T01:05:42;95182.41;;;22.37;59.07
6343;BME280;3204;42.698;23.298;2022-07-04T01:08:08;95173.69;;;22.35;59.30
6343;BME280;3204;42.698;23.298;2022-07-04T01:10:35;95177.28;;;22.39;59.30
6343;BME280;3204;42.698;23.298;2022-07-04T01:13:00;95184.03;;;22.42;58.26
6343;BME280;3204;42.698;23.298;2022-07-04T01:15:29;95176.34;;;22.25;58.62
6343;BME280;3204;42.698;23.298;2022-07-04T01:17:55;95186.94;;;22.19;58.36
6343;BME280;3204;42.698;23.298;2022-07-04T01:20:20;95178.06;;;22.03;58.48
6343;BME280;3204;42.698;23.298;2022-07-04T01:22:47;95179.66;;;22.04;58.51
6343;BME280;3204;42.698;23.298;2022-07-04T01:25:13;95178.66;;;21.90;58.47
6343;BME280;3204;42.698;23.298;2022-07-04T01:27:39;95182.22;;;21.90;58.98
6343;BME280;3204;42.698;23.298;2022-07-04T01:30:05;95181.03;;;21.91;59.33
6343;BME280;3204;42.698;23.298;2022-07-04T01:32:31;95178.38;;;21.98;58.38
6343;BME280;3204;42.698;23.298;2022-07-04T01:34:56;95172.88;;;21.98;58.00
6343;BME280;3204;42.698;23.298;2022-07-04T01:37:22;95184.31;;;22.00;57.78
6343;BME280;3204;42.698;23.298;2022-07-04T01:39:47;95178.00;;;22.00;58.14
6343;BME280;3204;42.698;23.298;2022-07-04T01:42:13;95185.31;;;22.15;57.33
6343;BME280;3204;42.698;23.298;2022-07-04T01:44:38;95188.44;;;22.13;56.91
6343;BME280;3204;42.698;23.298;2022-07-04T01:47:04;95185.25;;;22.11;56.98
6343;BME280;3204;42.698;23.298;2022-07-04T01:49:30;95187.22;;;22.11;57.29
6343;BME280;3204;42.698;23.298;2022-07-04T01:51:56;95190.84;;;22.15;56.43
6343;BME280;3204;42.698;23.298;2022-07-04T01:54:21;95185.56;;;22.06;56.66
6343;BME280;3204;42.698;23.298;2022-07-04T01:56:47;95182.03;;;22.06;56.68
6343;BME280;3204;42.698;23.298;2022-07-04T01:59:12;95179.28;;;22.06;56.69
6343;BME280;3204;42.698;23.298;2022-07-04T02:01:38;95181.28;;;22.09;56.80
6343;BME280;3204;42.698;23.298;2022-07-04T02:04:05;95180.09;;;22.10;56.80
6343;BME280;3204;42.698;23.298;2022-07-04T02:06:32;95179.31;;;22.09;55.69
6343;BME280;3204;42.698;23.298;2022-07-04T02:09:00;95185.69;;;22.13;55.52
6343;BME280;3204;42.698;23.298;2022-07-04T02:11:45;95196.22;;;22.04;55.72
6343;BME280;3204;42.698;23.298;2022-07-04T02:14:30;95197.81;;;22.05;55.68
6343;BME280;3204;42.698;23.298;2022-07-04T02:16:59;95182.13;;;22.13;56.22
6343;BME280;3204;42.698;23.298;2022-07-04T02:19:25;95198.84;;;22.23;55.70
6343;BME280;3204;42.698;23.298;2022-07-04T02:21:50;95195.31;;;22.26;56.16
6343;BME280;3204;42.698;23.298;2022-07-04T02:24:17;95200.19;;;22.36;55.96
6343;BME280;3204;42.698;23.298;2022-07-04T02:26:43;95189.94;;;22.40;55.25
6343;BME280;3204;42.698;23.298;2022-07-04T02:29:08;95197.50;;;22.43;55.16
6343;BME280;3204;42.698;23.298;2022-07-04T02:31:34;95200.25;;;22.43;54.97
6343;BME280;3204;42.698;23.298;2022-07-04T02:33:59;95205.47;;;22.48;54.38
6343;BME280;3204;42.698;23.298;2022-07-04T02:36:25;95200.94;;;22.33;53.07
6343;BME280;3204;42.698;23.298;2022-07-04T02:38:51;95201.59;;;22.23;53.91
6343;BME280;3204;42.698;23.298;2022-07-04T02:41:16;95198.47;;;22.25;54.11
6343;BME280;3204;42.698;23.298;2022-07-04T02:43:42;95194.06;;;22.20;53.86
6343;BME280;3204;42.698;23.298;2022-07-04T02:46:07;95201.22;;;22.25;54.24
6343;BME280;3204;42.698;23.298;2022-07-04T02:48:33;95196.13;;;22.30;54.09
6343;BME280;3204;42.698;23.298;2022-07-04T02:50:58;95208.84;;;22.35;53.76
6343;BME280;3204;42.698;23.298;2022-07-04T02:53:24;95209.34;;;22.44;54.06
6343;BME280;3204;42.698;23.298;2022-07-04T02:55:49;95214.94;;;22.47;53.97
6343;BME280;3204;42.698;23.298;2022-07-04T02:58:15;95215.81;;;22.55;54.70
6343;BME280;3204;42.698;23.298;2022-07-04T03:00:41;95214.75;;;22.63;54.32
6343;BME280;3204;42.698;23.298;2022-07-04T03:03:06;95218.75;;;22.69;54.13
6343;BME280;3204;42.698;23.298;2022-07-04T03:05:31;95226.31;;;22.72;53.57
6343;BME280;3204;42.698;23.298;2022-07-04T03:07:58;95225.00;;;22.62;52.06
6343;BME280;3204;42.698;23.298;2022-07-04T03:10:23;95224.28;;;22.39;52.42
6343;BME280;3204;42.698;23.298;2022-07-04T03:12:49;95226.13;;;21.99;52.87
6343;BME280;3204;42.698;23.298;2022-07-04T03:15:15;95233.25;;;22.00;53.37
6343;BME280;3204;42.698;23.298;2022-07-04T03:17:40;95225.59;;;22.16;52.78
6343;BME280;3204;42.698;23.298;2022-07-04T03:20:09;95230.75;;;22.17;52.73
6343;BME280;3204;42.698;23.298;2022-07-04T03:22:35;95230.56;;;22.03;53.04
6343;BME280;3204;42.698;23.298;2022-07-04T03:25:00;95225.44;;;22.05;53.04
6343;BME280;3204;42.698;23.298;2022-07-04T03:27:26;95227.88;;;22.10;53.01
6343;BME280;3204;42.698;23.298;2022-07-04T03:29:51;95229.47;;;22.11;53.08
6343;BME280;3204;42.698;23.298;2022-07-04T03:32:17;95234.25;;;22.14;53.04
6343;BME280;3204;42.698;23.298;2022-07-04T03:34:42;95231.97;;;22.20;53.10
6343;BME280;3204;42.698;23.298;2022-07-04T03:37:10;95230.88;;;22.28;52.92
6343;BME280;3204;42.698;23.298;2022-07-04T03:39:36;95227.19;;;22.17;52.95
6343;BME280;3204;42.698;23.298;2022-07-04T03:42:01;95230.16;;;22.05;52.65
6343;BME280;3204;42.698;23.298;2022-07-04T03:44:27;95235.75;;;22.08;52.44
6343;BME280;3204;42.698;23.298;2022-07-04T03:46:52;95235.84;;;22.15;52.29
6343;BME280;3204;42.698;23.298;2022-07-04T03:49:18;95231.03;;;22.12;52.08
6343;BME280;3204;42.698;23.298;2022-07-04T03:51:43;95228.75;;;22.18;52.08
6343;BME280;3204;42.698;23.298;2022-07-04T03:54:09;95231.91;;;22.16;51.57
6343;BME280;3204;42.698;23.298;2022-07-04T03:56:34;95221.28;;;22.18;50.87
6343;BME280;3204;42.698;23.298;2022-07-04T03:59:00;95226.75;;;22.15;51.18
6343;BME280;3204;42.698;23.298;2022-07-04T04:01:25;95214.66;;;22.26;51.56
6343;BME280;3204;42.698;23.298;2022-07-04T04:03:51;95221.81;;;22.31;51.52
6343;BME280;3204;42.698;23.298;2022-07-04T04:06:35;95218.75;;;22.39;51.59
6343;BME280;3204;42.698;23.298;2022-07-04T04:09:01;95220.19;;;22.56;50.68
6343;BME280;3204;42.698;23.298;2022-07-04T04:11:26;95233.25;;;22.59;50.44
6343;BME280;3204;42.698;23.298;2022-07-04T04:13:52;95219.81;;;22.57;50.86
6343;BME280;3204;42.698;23.298;2022-07-04T04:16:17;95228.47;;;22.56;51.03
6343;BME280;3204;42.698;23.298;2022-07-04T04:18:43;95228.47;;;22.56;50.96
6343;BME280;3204;42.698;23.298;2022-07-04T04:21:09;95237.31;;;22.68;50.37
6343;BME280;3204;42.698;23.298;2022-07-04T04:23:34;95228.63;;;22.70;50.98
6343;BME280;3204;42.698;23.298;2022-07-04T04:25:59;95239.31;;;22.71;51.31
6343;BME280;3204;42.698;23.298;2022-07-04T04:28:25;95234.66;;;22.79;51.96
6343;BME280;3204;42.698;23.298;2022-07-04T04:30:51;95216.00;;;22.72;51.46
6343;BME280;3204;42.698;23.298;2022-07-04T04:33:16;95231.84;;;22.72;51.27
6343;BME280;3204;42.698;23.298;2022-07-04T04:35:42;95239.19;;;22.61;52.76
6343;BME280;3204;42.698;23.298;2022-07-04T04:38:07;95240.38;;;22.60;52.87
6343;BME280;3204;42.698;23.298;2022-07-04T04:40:33;95239.63;;;22.63;53.06
6343;BME280;3204;42.698;23.298;2022-07-04T04:42:59;95238.41;;;22.60;53.21
6343;BME280;3204;42.698;23.298;2022-07-04T04:45:24;95232.94;;;22.67;53.61
6343;BME280;3204;42.698;23.298;2022-07-04T04:47:50;95239.38;;;22.78;55.29
6343;BME280;3204;42.698;23.298;2022-07-04T04:50:17;95244.66;;;22.90;55.03
6343;BME280;3204;42.698;23.298;2022-07-04T04:52:42;95246.72;;;22.97;54.91
6343;BME280;3204;42.698;23.298;2022-07-04T04:55:08;95243.91;;;22.93;54.40
6343;BME280;3204;42.698;23.298;2022-07-04T04:57:34;95238.44;;;23.00;55.11
6343;BME280;3204;42.698;23.298;2022-07-04T05:00:00;95241.75;;;23.16;57.37
6343;BME280;3204;42.698;23.298;2022-07-04T05:02:25;95244.88;;;23.11;58.24
6343;BME280;3204;42.698;23.298;2022-07-04T05:04:52;95243.38;;;23.17;58.48
6343;BME280;3204;42.698;23.298;2022-07-04T05:07:18;95237.09;;;23.20;58.59
6343;BME280;3204;42.698;23.298;2022-07-04T05:09:43;95239.56;;;23.32;58.46
6343;BME280;3204;42.698;23.298;2022-07-04T05:12:09;95236.06;;;23.39;58.29
6343;BME280;3204;42.698;23.298;2022-07-04T05:14:34;95235.75;;;23.47;58.24
6343;BME280;3204;42.698;23.298;2022-07-04T05:17:00;95236.69;;;23.69;58.33
6343;BME280;3204;42.698;23.298;2022-07-04T05:19:25;95238.13;;;23.96;58.05
6343;BME280;3204;42.698;23.298;2022-07-04T05:21:51;95240.53;;;24.04;56.77
6343;BME280;3204;42.698;23.298;2022-07-04T05:24:16;95241.75;;;24.10;56.65
6343;BME280;3204;42.698;23.298;2022-07-04T05:26:42;95238.97;;;24.10;56.92
6343;BME280;3204;42.698;23.298;2022-07-04T05:29:08;95240.63;;;24.22;56.26
6343;BME280;3204;42.698;23.298;2022-07-04T05:31:33;95243.38;;;24.18;56.00
6343;BME280;3204;42.698;23.298;2022-07-04T05:33:59;95234.63;;;24.09;56.23
6343;BME280;3204;42.698;23.298;2022-07-04T05:36:25;95246.97;;;24.19;56.16
6343;BME280;3204;42.698;23.298;2022-07-04T05:38:51;95245.41;;;24.25;55.49
6343;BME280;3204;42.698;23.298;2022-07-04T05:41:17;95237.09;;;24.21;55.70
6343;BME280;3204;42.698;23.298;2022-07-04T05:43:42;95243.03;;;24.27;55.42
6343;BME280;3204;42.698;23.298;2022-07-04T05:46:08;95243.47;;;24.32;54.96
6343;BME280;3204;42.698;23.298;2022-07-04T05:48:34;95241.50;;;24.36;54.54
6343;BME280;3204;42.698;23.298;2022-07-04T05:50:59;95238.72;;;24.33;54.77
6343;BME280;3204;42.698;23.298;2022-07-04T05:53:25;95233.56;;;24.31;54.38
6343;BME280;3204;42.698;23.298;2022-07-04T05:55:51;95228.03;;;24.42;54.37
6343;BME280;3204;42.698;23.298;2022-07-04T05:58:16;95243.94;;;24.48;54.45
6343;BME280;3204;42.698;23.298;2022-07-04T06:00:42;95244.00;;;24.59;54.02
6343;BME280;3204;42.698;23.298;2022-07-04T06:03:08;95239.28;;;24.66;52.13
6343;BME280;3204;42.698;23.298;2022-07-04T06:05:33;95241.97;;;24.49;50.92
6343;BME280;3204;42.698;23.298;2022-07-04T06:07:59;95243.03;;;24.27;50.37
6343;BME280;3204;42.698;23.298;2022-07-04T06:10:25;95237.94;;;24.39;49.79
6343;BME280;3204;42.698;23.298;2022-07-04T06:12:50;95246.75;;;24.52;50.22
6343;BME280;3204;42.698;23.298;2022-07-04T06:15:15;95247.94;;;24.54;48.89
6343;BME280;3204;42.698;23.298;2022-07-04T06:17:41;95242.81;;;24.63;48.66
6343;BME280;3204;42.698;23.298;2022-07-04T06:20:08;95236.53;;;24.73;48.82
6343;BME280;3204;42.698;23.298;2022-07-04T06:22:45;95242.06;;;24.70;47.50
6343;BME280;3204;42.698;23.298;2022-07-04T06:25:18;95244.50;;;24.78;47.30
6343;BME280;3204;42.698;23.298;2022-07-04T06:27:46;95238.94;;;24.85;47.51
6343;BME280;3204;42.698;23.298;2022-07-04T06:30:11;95238.22;;;25.06;47.86
6343;BME280;3204;42.698;23.298;2022-07-04T06:32:47;95235.06;;;25.21;46.23
6343;BME280;3204;42.698;23.298;2022-07-04T06:35:16;95227.16;;;25.27;44.91
6343;BME280;3204;42.698;23.298;2022-07-04T06:38:01;95239.09;;;25.38;44.61
6343;BME280;3204;42.698;23.298;2022-07-04T06:40:26;95239.88;;;25.66;44.23
6343;BME280;3204;42.698;23.298;2022-07-04T06:42:52;95235.91;;;25.88;44.57
6343;BME280;3204;42.698;23.298;2022-07-04T06:45:17;95234.72;;;25.82;43.33
6343;BME280;3204;42.698;23.298;2022-07-04T06:47:43;95224.78;;;25.92;43.28
6343;BME280;3204;42.698;23.298;2022-07-04T06:50:09;95228.31;;;26.13;43.75
6343;BME280;3204;42.698;23.298;2022-07-04T06:52:35;95225.47;;;26.41;43.64
6343;BME280;3204;42.698;23.298;2022-07-04T06:55:00;95229.00;;;26.59;43.55
6343;BME280;3204;42.698;23.298;2022-07-04T06:57:26;95221.38;;;26.77;43.32
6343;BME280;3204;42.698;23.298;2022-07-04T06:59:52;95216.06;;;27.00;42.96
6343;BME280;3204;42.698;23.298;2022-07-04T07:02:17;95221.13;;;27.19;42.51
6343;BME280;3204;42.698;23.298;2022-07-04T07:04:43;95217.00;;;27.42;41.67
6343;BME280;3204;42.698;23.298;2022-07-04T07:07:09;95213.75;;;27.50;41.58
6343;BME280;3204;42.698;23.298;2022-07-04T07:09:35;95212.38;;;27.17;42.35
6343;BME280;3204;42.698;23.298;2022-07-04T07:12:00;95211.94;;;27.30;42.92
6343;BME280;3204;42.698;23.298;2022-07-04T07:14:26;95206.34;;;27.33;42.71
6343;BME280;3204;42.698;23.298;2022-07-04T07:16:52;95202.72;;;27.36;42.53
6343;BME280;3204;42.698;23.298;2022-07-04T07:19:17;95206.88;;;27.07;42.57
6343;BME280;3204;42.698;23.298;2022-07-04T07:21:43;95204.88;;;27.07;42.92
6343;BME280;3204;42.698;23.298;2022-07-04T07:24:09;95205.31;;;27.02;43.21
6343;BME280;3204;42.698;23.298;2022-07-04T07:26:35;95196.50;;;27.11;43.39
6343;BME280;3204;42.698;23.298;2022-07-04T07:29:00;95210.69;;;27.34;43.61
6343;BME280;3204;42.698;23.298;2022-07-04T07:31:26;95201.00;;;27.52;43.53
6343;BME280;3204;42.698;23.298;2022-07-04T07:33:51;95207.16;;;27.78;42.71
6343;BME280;3204;42.698;23.298;2022-07-04T07:36:17;95201.44;;;27.51;43.15
6343;BME280;3204;42.698;23.298;2022-07-04T07:38:42;95198.41;;;27.76;43.34
6343;BME280;3204;42.698;23.298;2022-07-04T07:41:09;95201.16;;;27.79;42.56
6343;BME280;3204;42.698;23.298;2022-07-04T07:43:34;95189.38;;;28.05;41.64
6343;BME280;3204;42.698;23.298;2022-07-04T07:46:00;95199.53;;;28.26;42.42
6343;BME280;3204;42.698;23.298;2022-07-04T07:48:26;95190.88;;;28.54;42.32
6343;BME280;3204;42.698;23.298;2022-07-04T07:50:52;95198.59;;;28.73;41.89
6343;BME280;3204;42.698;23.298;2022-07-04T07:53:18;95196.38;;;28.91;41.29
6343;BME280;3204;42.698;23.298;2022-07-04T07:55:44;95196.19;;;29.05;41.41
6343;BME280;3204;42.698;23.298;2022-07-04T07:58:09;95194.25;;;29.02;41.11
6343;BME280;3204;42.698;23.298;2022-07-04T08:00:34;95196.72;;;28.93;41.70
6343;BME280;3204;42.698;23.298;2022-07-04T08:03:00;95193.44;;;29.01;41.87
6343;BME280;3204;42.698;23.298;2022-07-04T08:05:44;95187.59;;;29.19;43.01
6343;BME280;3204;42.698;23.298;2022-07-04T08:08:10;95185.72;;;29.12;41.08
6343;BME280;3204;42.698;23.298;2022-07-04T08:10:36;95186.50;;;29.13;41.76
6343;BME280;3204;42.698;23.298;2022-07-04T08:13:03;95182.00;;;29.45;41.15
6343;BME280;3204;42.698;23.298;2022-07-04T08:15:29;95186.84;;;29.68;41.83
6343;BME280;3204;42.698;23.298;2022-07-04T08:17:55;95187.69;;;29.88;40.99
6343;BME280;3204;42.698;23.298;2022-07-04T08:20:20;95189.41;;;29.82;41.42
6343;BME280;3204;42.698;23.298;2022-07-04T08:22:46;95193.41;;;29.81;41.55
6343;BME280;3204;42.698;23.298;2022-07-04T08:25:12;95190.16;;;29.86;43.26
6343;BME280;3204;42.698;23.298;2022-07-04T08:27:39;95180.13;;;30.08;41.01
6343;BME280;3204;42.698;23.298;2022-07-04T08:30:05;95176.09;;;29.89;40.35
6343;BME280;3204;42.698;23.298;2022-07-04T08:32:31;95172.38;;;30.19;40.83
6343;BME280;3204;42.698;23.298;2022-07-04T08:34:56;95163.22;;;30.38;41.24
6343;BME280;3204;42.698;23.298;2022-07-04T08:37:22;95163.91;;;30.42;41.49
6343;BME280;3204;42.698;23.298;2022-07-04T08:39:48;95161.56;;;30.40;41.10
6343;BME280;3204;42.698;23.298;2022-07-04T08:42:17;95163.03;;;30.25;41.81
6343;BME280;3204;42.698;23.298;2022-07-04T08:44:47;95166.28;;;30.63;40.85
6343;BME280;3204;42.698;23.298;2022-07-04T08:47:20;95159.59;;;30.96;40.59
6343;BME280;3204;42.698;23.298;2022-07-04T08:50:37;95159.75;;;31.24;39.87
6343;BME280;3204;42.698;23.298;2022-07-04T08:53:10;95162.31;;;31.35;41.97
6343;BME280;3204;42.698;23.298;2022-07-04T08:55:37;95150.03;;;30.93;41.29
6343;BME280;3204;42.698;23.298;2022-07-04T08:58:23;95170.09;;;31.27;41.07
6343;BME280;3204;42.698;23.298;2022-07-04T09:01:00;95167.94;;;30.80;40.83
6343;BME280;3204;42.698;23.298;2022-07-04T09:03:27;95166.13;;;30.31;41.61
6343;BME280;3204;42.698;23.298;2022-07-04T09:05:53;95164.41;;;30.37;42.08
6343;BME280;3204;42.698;23.298;2022-07-04T09:08:19;95159.03;;;30.26;42.28
6343;BME280;3204;42.698;23.298;2022-07-04T09:10:47;95155.81;;;30.67;41.36
6343;BME280;3204;42.698;23.298;2022-07-04T09:13:13;95158.03;;;31.11;40.11
6343;BME280;3204;42.698;23.298;2022-07-04T09:15:47;95154.69;;;31.51;40.63
6343;BME280;3204;42.698;23.298;2022-07-04T09:18:39;95152.16;;;31.73;40.01
6343;BME280;3204;42.698;23.298;2022-07-04T09:21:07;95154.44;;;31.94;39.83
6343;BME280;3204;42.698;23.298;2022-07-04T09:23:40;95149.94;;;31.96;39.85
6343;BME280;3204;42.698;23.298;2022-07-04T09:26:20;95157.75;;;32.05;39.00
6343;BME280;3204;42.698;23.298;2022-07-04T09:28:54;95155.09;;;32.30;37.70
6343;BME280;3204;42.698;23.298;2022-07-04T09:31:26;95152.34;;;32.26;37.79
6343;BME280;3204;42.698;23.298;2022-07-04T09:33:59;95153.44;;;32.16;35.81
6343;BME280;3204;42.698;23.298;2022-07-04T09:36:28;95154.88;;;32.37;36.02
6343;BME280;3204;42.698;23.298;2022-07-04T09:39:14;95139.59;;;32.66;33.67
6343;BME280;3204;42.698;23.298;2022-07-04T09:44:16;95137.69;;;32.63;35.35
6343;BME280;3204;42.698;23.298;2022-07-04T09:46:42;95132.53;;;32.74;35.29
6343;BME280;3204;42.698;23.298;2022-07-04T09:49:10;95139.56;;;32.95;37.42
6343;BME280;3204;42.698;23.298;2022-07-04T09:51:36;95140.97;;;32.74;35.90
6343;BME280;3204;42.698;23.298;2022-07-04T09:54:16;95135.66;;;33.05;36.37
6343;BME280;3204;42.698;23.298;2022-07-04T09:56:44;95130.41;;;33.32;36.50
6343;BME280;3204;42.698;23.298;2022-07-04T09:59:10;95134.41;;;33.18;35.04
6343;BME280;3204;42.698;23.298;2022-07-04T10:01:36;95141.69;;;32.78;35.74
6343;BME280;3204;42.698;23.298;2022-07-04T10:04:02;95137.44;;;33.11;35.29
6343;BME280;3204;42.698;23.298;2022-07-04T10:06:33;95136.88;;;33.04;35.65
6343;BME280;3204;42.698;23.298;2022-07-04T10:09:13;95140.16;;;33.15;35.50
6343;BME280;3204;42.698;23.298;2022-07-04T10:11:41;95143.34;;;33.29;35.69
6343;BME280;3204;42.698;23.298;2022-07-04T10:14:09;95144.41;;;33.07;36.57
6343;BME280;3204;42.698;23.298;2022-07-04T10:16:36;95144.97;;;33.27;37.76
6343;BME280;3204;42.698;23.298;2022-07-04T10:19:02;95139.16;;;33.34;36.38
6343;BME280;3204;42.698;23.298;2022-07-04T10:21:29;95141.38;;;33.26;36.03
6343;BME280;3204;42.698;23.298;2022-07-04T10:23:55;95125.75;;;33.13;36.98
6343;BME280;3204;42.698;23.298;2022-07-04T10:26:21;95125.97;;;33.18;37.75
6343;BME280;3204;42.698;23.298;2022-07-04T10:28:51;95122.69;;;32.95;36.93
6343;BME280;3204;42.698;23.298;2022-07-04T10:31:19;95131.13;;;32.95;37.27
6343;BME280;3204;42.698;23.298;2022-07-04T10:33:46;95127.09;;;33.08;37.74
6343;BME280;3204;42.698;23.298;2022-07-04T10:36:22;95121.66;;;32.89;37.25
6343;BME280;3204;42.698;23.298;2022-07-04T10:38:59;95119.34;;;33.25;37.77
6343;BME280;3204;42.698;23.298;2022-07-04T10:41:26;95118.22;;;33.35;37.30
6343;BME280;3204;42.698;23.298;2022-07-04T10:44:05;95116.06;;;33.26;37.39
6343;BME280;3204;42.698;23.298;2022-07-04T10:46:49;95112.13;;;32.99;38.51
6343;BME280;3204;42.698;23.298;2022-07-04T10:54:15;95106.06;;;33.13;37.96
6343;BME280;3204;42.698;23.298;2022-07-04T10:56:49;95108.41;;;33.14;37.59
6343;BME280;3204;42.698;23.298;2022-07-04T10:59:28;95105.75;;;33.48;37.73
6343;BME280;3204;42.698;23.298;2022-07-04T11:05:03;95097.97;;;33.15;37.89
6343;BME280;3204;42.698;23.298;2022-07-04T11:18:04;95085.78;;;32.93;38.22
6343;BME280;3204;42.698;23.298;2022-07-04T11:20:31;95079.41;;;32.92;38.37
6343;BME280;3204;42.698;23.298;2022-07-04T11:23:05;95085.03;;;32.80;38.85
6343;BME280;3204;42.698;23.298;2022-07-04T11:25:31;95082.66;;;32.50;39.02
6343;BME280;3204;42.698;23.298;2022-07-04T11:27:57;95090.22;;;32.53;39.04
6343;BME280;3204;42.698;23.298;2022-07-04T11:30:22;95084.31;;;32.76;39.17
6343;BME280;3204;42.698;23.298;2022-07-04T11:32:48;95091.38;;;32.68;38.23
6343;BME280;3204;42.698;23.298;2022-07-04T11:35:13;95086.59;;;32.93;38.74
6343;BME280;3204;42.698;23.298;2022-07-04T11:37:43;95073.06;;;33.26;38.17
6343;BME280;3204;42.698;23.298;2022-07-04T11:40:10;95065.09;;;33.12;39.14
6343;BME280;3204;42.698;23.298;2022-07-04T11:43:12;95074.31;;;33.50;38.39
6343;BME280;3204;42.698;23.298;2022-07-04T11:46:10;95062.41;;;33.08;37.96
6343;BME280;3204;42.698;23.298;2022-07-04T11:48:36;95059.25;;;33.44;38.80
6343;BME280;3204;42.698;23.298;2022-07-04T11:51:02;95058.63;;;33.61;38.01
6343;BME280;3204;42.698;23.298;2022-07-04T11:53:27;95058.19;;;33.63;37.57
6343;BME280;3204;42.698;23.298;2022-07-04T11:55:57;95044.41;;;33.77;37.61
6343;BME280;3204;42.698;23.298;2022-07-04T11:58:39;95044.41;;;33.77;37.76
6343;BME280;3204;42.698;23.298;2022-07-04T12:01:04;95040.22;;;33.48;37.82
6343;BME280;3204;42.698;23.298;2022-07-04T12:03:32;95037.66;;;33.16;37.86
6343;BME280;3204;42.698;23.298;2022-07-04T12:06:02;95031.34;;;33.37;37.98
6343;BME280;3204;42.698;23.298;2022-07-04T12:08:28;95033.75;;;33.72;37.29
6343;BME280;3204;42.698;23.298;2022-07-04T12:10:54;95027.16;;;33.88;37.70
6343;BME280;3204;42.698;23.298;2022-07-04T12:13:20;95028.75;;;33.89;37.89
6343;BME280;3204;42.698;23.298;2022-07-04T12:15:47;95029.25;;;33.62;37.85
6343;BME280;3204;42.698;23.298;2022-07-04T12:20:48;95028.59;;;33.46;37.20
6343;BME280;3204;42.698;23.298;2022-07-04T12:23:14;95020.38;;;33.51;37.67
6343;BME280;3204;42.698;23.298;2022-07-04T12:25:40;95018.97;;;33.09;38.05
6343;BME280;3204;42.698;23.298;2022-07-04T12:28:10;95021.28;;;32.48;39.22
6343;BME280;3204;42.698;23.298;2022-07-04T12:30:50;95018.59;;;32.32;39.63
6343;BME280;3204;42.698;23.298;2022-07-04T12:33:18;95017.72;;;32.07;40.74
6343;BME280;3204;42.698;23.298;2022-07-04T12:40:57;95001.75;;;32.57;40.39
6343;BME280;3204;42.698;23.298;2022-07-04T12:46:30;95008.28;;;32.54;39.86
6343;BME280;3204;42.698;23.298;2022-07-04T12:48:57;95004.81;;;32.63;39.55
6343;BME280;3204;42.698;23.298;2022-07-04T12:51:25;95010.44;;;32.75;39.93
6343;BME280;3204;42.698;23.298;2022-07-04T12:53:54;95014.22;;;32.44;39.99
6343;BME280;3204;42.698;23.298;2022-07-04T12:56:33;95012.88;;;32.48;39.57
6343;BME280;3204;42.698;23.298;2022-07-04T12:59:02;95003.81;;;32.82;39.63
6343;BME280;3204;42.698;23.298;2022-07-04T13:01:28;94995.72;;;32.96;38.97
6343;BME280;3204;42.698;23.298;2022-07-04T13:03:54;95004.25;;;33.18;39.46
6343;BME280;3204;42.698;23.298;2022-07-04T13:06:20;95002.09;;;33.09;39.10
6343;BME280;3204;42.698;23.298;2022-07-04T13:08:46;95003.31;;;33.21;40.20
6343;BME280;3204;42.698;23.298;2022-07-04T13:11:12;94990.19;;;33.18;39.16
6343;BME280;3204;42.698;23.298;2022-07-04T13:13:57;94989.38;;;33.30;39.14
6343;BME280;3204;42.698;23.298;2022-07-04T13:16:22;94986.91;;;33.32;39.22
6343;BME280;3204;42.698;23.298;2022-07-04T13:18:48;94986.22;;;33.40;39.52
6343;BME280;3204;42.698;23.298;2022-07-04T13:21:14;94985.88;;;33.26;38.85
6343;BME280;3204;42.698;23.298;2022-07-04T13:23:39;94979.66;;;33.43;39.06
6343;BME280;3204;42.698;23.298;2022-07-04T13:26:05;94980.47;;;33.44;38.32
6343;BME280;3204;42.698;23.298;2022-07-04T13:28:31;94977.22;;;33.33;38.53
6343;BME280;3204;42.698;23.298;2022-07-04T13:30:56;94993.34;;;33.07;38.25
6343;BME280;3204;42.698;23.298;2022-07-04T13:33:22;94986.06;;;32.97;37.76
6343;BME280;3204;42.698;23.298;2022-07-04T13:35:48;94990.19;;;33.18;38.12
6343;BME280;3204;42.698;23.298;2022-07-04T13:38:13;94972.28;;;33.12;38.27
6343;BME280;3204;42.698;23.298;2022-07-04T13:40:42;94967.75;;;33.27;38.56
6343;BME280;3204;42.698;23.298;2022-07-04T13:43:08;94957.94;;;33.44;38.36
6343;BME280;3204;42.698;23.298;2022-07-04T13:45:38;94961.38;;;33.14;38.74